Time;durP1;ratioP1;P1;durP2;ratioP2;P2;SDS_P1;SDS_P2;PMS_P1;PMS_P2;Temp;Humidity;BMP_temperature;BMP_pressure;BME280_temperature;BME280_humidity;BME280_pressure;Samples;Min_cycle;Max_cycle;Signal;HPM_P1;HPM_P2
2022/12/01 00:00:55;;;;;;;40.72;20.95;;;7.30;99.90;;;;;;5043756;28;20051;-40
2022/12/01 00:03:21;;;;;;;36.05;20.13;;;7.30;99.90;;;;;;5044247;28;20033;-40
2022/12/01 00:05:46;;;;;;;40.05;20.95;;;7.30;99.90;;;;;;5043889;28;20028;-38
2022/12/01 00:08:12;;;;;;;40.28;20.17;;;7.30;99.90;;;;;;5043198;28;20153;-39
2022/12/01 00:10:37;;;;;;;32.97;18.10;;;7.30;99.90;;;;;;5044183;28;20060;-40
2022/12/01 00:13:05;;;;;;;38.88;20.88;;;7.20;99.90;;;;;;5044393;28;20029;-40
2022/12/01 00:15:33;;;;;;;32.28;18.45;;;7.20;99.90;;;;;;5043221;28;20108;-41
2022/12/01 00:18:00;;;;;;;35.60;18.90;;;7.20;99.90;;;;;;5044727;28;20052;-40
2022/12/01 00:20:25;;;;;;;35.38;19.67;;;7.20;99.90;;;;;;5043616;28;20029;-39
2022/12/01 00:22:51;;;;;;;36.03;19.58;;;7.20;99.90;;;;;;5042875;28;20033;-39
2022/12/01 00:25:18;;;;;;;37.88;19.98;;;7.30;99.90;;;;;;5043181;28;20813;-40
2022/12/01 00:27:47;;;;;;;34.58;19.08;;;7.30;99.90;;;;;;5042714;28;20120;-41
2022/12/01 00:30:13;;;;;;;34.17;18.73;;;7.30;99.90;;;;;;5043693;28;20064;-41
2022/12/01 00:32:39;;;;;;;40.08;21.73;;;7.20;99.90;;;;;;5044608;28;20492;-41
2022/12/01 00:35:05;;;;;;;42.40;21.65;;;7.30;99.90;;;;;;5042804;28;20062;-40
2022/12/01 00:37:32;;;;;;;43.03;22.63;;;7.20;99.90;;;;;;5043585;28;20132;-40
2022/12/01 00:39:58;;;;;;;41.40;21.77;;;7.20;99.90;;;;;;5042697;28;20446;-39
2022/12/01 00:42:24;;;;;;;34.05;18.58;;;7.20;99.90;;;;;;5042870;28;20116;-40
2022/12/01 00:44:50;;;;;;;40.35;22.08;;;7.20;99.90;;;;;;5043195;28;20370;-41
2022/12/01 00:47:22;;;;;;;40.38;22.40;;;7.20;99.90;;;;;;5043229;28;20036;-40
2022/12/01 00:49:47;;;;;;;42.97;22.15;;;7.20;99.90;;;;;;5042564;28;20120;-41
2022/12/01 00:52:14;;;;;;;46.35;24.13;;;7.20;99.90;;;;;;5043155;28;20029;-41
2022/12/01 00:54:40;;;;;;;37.90;21.33;;;7.10;99.90;;;;;;5043232;28;20500;-41
2022/12/01 00:57:06;;;;;;;41.08;22.63;;;7.10;99.90;;;;;;5042377;28;20112;-42
2022/12/01 00:59:32;;;;;;;34.38;20.33;;;7.10;99.90;;;;;;5043630;28;20155;-41
2022/12/01 01:01:58;;;;;;;38.10;21.38;;;7.20;99.90;;;;;;5042237;28;20484;-41
2022/12/01 01:04:23;;;;;;;40.63;21.77;;;7.20;99.90;;;;;;5042523;28;20029;-40
2022/12/01 01:06:49;;;;;;;39.40;22.23;;;7.20;99.90;;;;;;5042532;28;20453;-38
2022/12/01 01:09:15;;;;;;;41.55;23.17;;;7.20;99.90;;;;;;5042834;28;20029;-39
2022/12/01 01:11:42;;;;;;;42.45;23.08;;;7.20;99.90;;;;;;5041984;28;20032;-40
2022/12/01 01:14:08;;;;;;;38.17;22.52;;;7.20;99.90;;;;;;5042803;28;20453;-40
2022/12/01 01:16:34;;;;;;;40.28;22.85;;;7.20;99.90;;;;;;5042937;28;20035;-39
2022/12/01 01:18:59;;;;;;;40.58;22.65;;;7.20;99.90;;;;;;5042816;28;20036;-40
2022/12/01 01:21:26;;;;;;;41.30;22.27;;;7.20;99.90;;;;;;5043286;28;20024;-40
2022/12/01 01:23:53;;;;;;;38.70;21.65;;;7.20;99.90;;;;;;5042692;28;20388;-38
2022/12/01 01:26:30;;;;;;;38.60;21.88;;;7.20;99.90;;;;;;5042157;28;20035;-40
2022/12/01 01:28:57;;;;;;;48.92;24.10;;;7.20;99.90;;;;;;5042967;28;20025;-40
2022/12/01 01:31:25;;;;;;;42.03;23.55;;;7.20;99.90;;;;;;5042308;28;20107;-39
2022/12/01 01:33:50;;;;;;;47.08;23.08;;;7.20;99.90;;;;;;5042913;28;20104;-40
2022/12/01 01:36:17;;;;;;;37.97;22.95;;;7.20;99.90;;;;;;5042322;28;20064;-41
2022/12/01 01:38:43;;;;;;;41.15;24.10;;;7.20;99.90;;;;;;5041434;28;20061;-41
2022/12/01 01:41:12;;;;;;;41.00;24.15;;;7.20;99.90;;;;;;5042511;28;20032;-40
2022/12/01 01:43:40;;;;;;;45.47;25.83;;;7.20;99.90;;;;;;5042266;28;20050;-39
2022/12/01 01:46:13;;;;;;;47.42;26.42;;;7.20;99.90;;;;;;5041643;28;20107;-39
2022/12/01 01:48:41;;;;;;;43.53;24.60;;;7.10;99.90;;;;;;5041791;28;20013;-41
2022/12/01 01:51:07;;;;;;;43.00;24.98;;;7.10;99.90;;;;;;5042532;28;20111;-40
2022/12/01 01:53:33;;;;;;;43.63;24.65;;;7.10;99.90;;;;;;5040686;28;20805;-42
2022/12/01 01:56:00;;;;;;;45.28;25.45;;;7.10;99.90;;;;;;5042403;28;20100;-39
2022/12/01 01:58:31;;;;;;;49.33;26.55;;;7.10;99.90;;;;;;5042239;28;20112;-41
2022/12/01 02:00:56;;;;;;;54.17;28.13;;;7.00;99.90;;;;;;5041375;28;20055;-41
2022/12/01 02:03:23;;;;;;;52.95;27.67;;;7.00;99.90;;;;;;5042249;28;20044;-41
2022/12/01 02:05:48;;;;;;;51.33;27.77;;;7.00;99.90;;;;;;5041822;28;20025;-40
2022/12/01 02:08:14;;;;;;;55.03;27.95;;;7.00;99.90;;;;;;5041022;28;20032;-41
2022/12/01 02:11:05;;;;;;;52.70;28.80;;;7.00;99.90;;;;;;5041849;28;20040;-41
2022/12/01 02:13:55;;;;;;;53.20;27.17;;;7.00;99.90;;;;;;5040851;28;20029;-40
2022/12/01 02:17:07;;;;;;;60.10;29.48;;;7.00;99.90;;;;;;5041314;28;20021;-41
2022/12/01 02:20:04;;;;;;;55.83;28.70;;;7.00;99.90;;;;;;5032429;28;20037;-40
2022/12/01 02:22:52;;;;;;;49.30;26.42;;;7.00;99.90;;;;;;5041688;28;20678;-40
2022/12/01 02:25:44;;;;;;;46.97;26.02;;;7.00;99.90;;;;;;5039813;28;20029;-40
2022/12/01 02:28:25;;;;;;;50.80;25.55;;;7.00;99.90;;;;;;5040523;28;20040;-40
2022/12/01 02:31:00;;;;;;;48.97;26.80;;;7.00;99.90;;;;;;5031554;28;20132;-40
2022/12/01 02:33:40;;;;;;;51.70;27.67;;;7.00;99.90;;;;;;5040737;28;20025;-40
2022/12/01 02:36:18;;;;;;;47.88;24.75;;;7.00;99.90;;;;;;5040364;28;20056;-40
2022/12/01 02:38:55;;;;;;;50.88;26.52;;;7.00;99.90;;;;;;5041078;28;20056;-35
2022/12/01 02:41:33;;;;;;;47.53;25.77;;;7.00;99.90;;;;;;5040571;28;20017;-39
2022/12/01 02:44:10;;;;;;;50.05;24.27;;;7.00;99.90;;;;;;5041252;28;20519;-40
2022/12/01 02:47:03;;;;;;;42.83;23.58;;;7.00;99.90;;;;;;5041483;28;20029;-40
2022/12/01 02:49:36;;;;;;;49.22;24.42;;;7.00;99.90;;;;;;5037936;28;20071;-42
2022/12/01 02:52:05;;;;;;;47.78;24.20;;;7.10;99.90;;;;;;5041428;28;20029;-40
2022/12/01 02:54:31;;;;;;;47.08;23.75;;;7.10;99.90;;;;;;5041375;28;20020;-41
2022/12/01 02:56:57;;;;;;;44.80;24.05;;;7.10;99.90;;;;;;5040684;28;20108;-41
2022/12/01 02:59:22;;;;;;;39.97;23.15;;;7.10;99.90;;;;;;5041780;28;20036;-40
2022/12/01 03:02:28;;;;;;;44.00;24.52;;;7.10;99.90;;;;;;5041028;28;20032;-41
2022/12/01 03:05:03;;;;;;;43.10;23.27;;;7.10;99.90;;;;;;5040937;28;20072;-40
2022/12/01 03:07:38;;;;;;;43.05;23.63;;;7.10;99.90;;;;;;5041849;28;20040;-39
2022/12/01 03:10:26;;;;;;;45.10;23.23;;;7.10;99.90;;;;;;5039765;28;20036;-40
2022/12/01 03:12:59;;;;;;;49.03;25.17;;;7.10;99.90;;;;;;5040852;28;20032;-41
2022/12/01 03:15:35;;;;;;;44.83;23.70;;;7.10;99.90;;;;;;5041286;28;20367;-41
2022/12/01 03:18:31;;;;;;;43.65;23.23;;;7.20;99.90;;;;;;5040003;28;20029;-39
2022/12/01 03:21:20;;;;;;;46.10;23.35;;;7.20;99.90;;;;;;5040541;28;20053;-39
2022/12/01 03:23:50;;;;;;;44.45;23.40;;;7.20;99.90;;;;;;5020611;28;20026;-40
2022/12/01 03:26:20;;;;;;;47.63;25.02;;;7.20;99.90;;;;;;5034966;28;20328;-40
2022/12/01 03:28:51;;;;;;;51.55;26.42;;;7.20;99.90;;;;;;5040201;28;20483;-42
2022/12/01 03:31:19;;;;;;;52.63;26.27;;;7.20;99.90;;;;;;5041947;28;20102;-39
2022/12/01 03:33:57;;;;;;;45.97;23.77;;;7.20;99.90;;;;;;5044386;28;20025;-40
2022/12/01 03:36:41;;;;;;;48.53;24.40;;;7.20;99.90;;;;;;5044400;28;20041;-40
2022/12/01 03:39:13;;;;;;;47.15;23.98;;;7.20;99.90;;;;;;5043967;28;20052;-39
2022/12/01 03:41:49;;;;;;;44.95;24.33;;;7.20;99.90;;;;;;5044645;28;20449;-41
2022/12/01 03:44:20;;;;;;;46.08;23.88;;;7.20;99.90;;;;;;5044323;28;20777;-40
2022/12/01 03:47:04;;;;;;;44.35;22.77;;;7.20;99.90;;;;;;5043197;28;20032;-40
2022/12/01 03:49:30;;;;;;;46.30;23.65;;;7.20;99.90;;;;;;5044768;28;20114;-40
2022/12/01 03:52:27;;;;;;;45.42;23.73;;;7.20;99.90;;;;;;5043756;28;20029;-40
2022/12/01 03:54:56;;;;;;;44.75;23.58;;;7.20;99.90;;;;;;5024584;28;20025;-39
2022/12/01 03:57:45;;;;;;;39.10;21.10;;;7.20;99.90;;;;;;5039600;28;20029;-39
2022/12/01 04:00:13;;;;;;;41.33;22.88;;;7.20;99.90;;;;;;5023993;28;20029;-40
2022/12/01 04:02:40;;;;;;;43.70;23.23;;;7.20;99.90;;;;;;5040466;28;20044;-39
2022/12/01 04:05:08;;;;;;;43.22;23.48;;;7.20;99.90;;;;;;5044033;28;20740;-40
2022/12/01 04:07:34;;;;;;;43.63;24.13;;;7.20;99.90;;;;;;5043418;28;20493;-41
2022/12/01 04:09:59;;;;;;;44.15;23.20;;;7.20;99.90;;;;;;5044633;28;20048;-41
2022/12/01 04:12:28;;;;;;;46.42;23.17;;;7.20;99.90;;;;;;5044062;28;20017;-40
2022/12/01 04:14:55;;;;;;;45.10;24.13;;;7.20;99.90;;;;;;5044246;28;20107;-40
2022/12/01 04:17:20;;;;;;;47.10;24.55;;;7.20;99.90;;;;;;5043935;28;20025;-39
2022/12/01 04:19:46;;;;;;;48.85;25.90;;;7.20;99.90;;;;;;5042308;28;20555;-40
2022/12/01 04:22:11;;;;;;;48.92;25.40;;;7.20;99.90;;;;;;5038999;28;20126;-40
2022/12/01 04:24:37;;;;;;;46.70;23.38;;;7.20;99.90;;;;;;5043893;28;20025;-39
2022/12/01 04:27:03;;;;;;;40.75;23.83;;;7.20;99.90;;;;;;5043526;28;20017;-38
2022/12/01 04:29:28;;;;;;;44.83;24.63;;;7.20;99.90;;;;;;5044285;28;20591;-39
2022/12/01 04:31:54;;;;;;;41.25;23.05;;;7.20;99.90;;;;;;5043413;28;20040;-41
2022/12/01 04:34:19;;;;;;;45.63;23.92;;;7.20;99.90;;;;;;5042873;28;20024;-41
2022/12/01 04:36:45;;;;;;;41.67;22.67;;;7.20;99.90;;;;;;5043804;28;20103;-38
2022/12/01 04:39:10;;;;;;;41.85;22.75;;;7.20;99.90;;;;;;5042997;28;20070;-41
2022/12/01 04:41:36;;;;;;;40.95;23.23;;;7.20;99.90;;;;;;5042224;28;20032;-40
2022/12/01 04:44:01;;;;;;;38.22;20.88;;;7.20;99.90;;;;;;5043302;28;20036;-41
2022/12/01 04:46:30;;;;;;;38.15;21.63;;;7.20;99.90;;;;;;5044037;28;20021;-40
2022/12/01 04:48:55;;;;;;;39.10;21.42;;;7.20;99.90;;;;;;5043100;28;20025;-38
2022/12/01 04:51:21;;;;;;;45.50;23.55;;;7.20;99.90;;;;;;5043840;28;20071;-42
2022/12/01 04:53:48;;;;;;;40.00;22.35;;;7.20;99.90;;;;;;5043091;28;20071;-40
2022/12/01 04:56:14;;;;;;;42.83;23.77;;;7.20;99.90;;;;;;5042693;28;20102;-39
2022/12/01 04:58:40;;;;;;;42.58;23.02;;;7.20;99.90;;;;;;5043033;28;20021;-40
2022/12/01 05:01:11;;;;;;;38.95;21.90;;;7.20;99.90;;;;;;5043198;28;20408;-41
2022/12/01 05:03:45;;;;;;;42.33;22.33;;;7.20;99.90;;;;;;5042575;28;20135;-40
2022/12/01 05:06:25;;;;;;;45.55;23.83;;;7.10;99.90;;;;;;5043321;28;20031;-41
2022/12/01 05:08:55;;;;;;;46.35;23.88;;;7.10;99.90;;;;;;5042453;28;20128;-40
2022/12/01 05:11:21;;;;;;;42.60;22.90;;;7.00;99.90;;;;;;5042116;28;20040;-40
2022/12/01 05:13:48;;;;;;;41.15;22.45;;;7.00;99.90;;;;;;5043425;28;20025;-40
2022/12/01 05:16:17;;;;;;;38.40;22.52;;;6.90;99.90;;;;;;5042216;28;20214;-41
2022/12/01 05:18:46;;;;;;;42.33;21.63;;;6.90;99.90;;;;;;5042445;28;20033;-40
2022/12/01 05:21:11;;;;;;;43.67;23.45;;;6.80;99.90;;;;;;5042092;28;20559;-41
2022/12/01 05:23:38;;;;;;;43.33;23.25;;;6.80;99.90;;;;;;5042108;28;20066;-40
2022/12/01 05:26:05;;;;;;;42.60;22.98;;;6.70;99.90;;;;;;5043632;28;20129;-40
2022/12/01 05:28:31;;;;;;;41.55;23.08;;;6.70;99.90;;;;;;5042773;28;20052;-40
2022/12/01 05:30:57;;;;;;;41.92;23.50;;;6.70;99.90;;;;;;5041207;28;20036;-41
2022/12/01 05:33:24;;;;;;;40.60;22.25;;;6.70;99.90;;;;;;5042559;28;20025;-40
2022/12/01 05:35:50;;;;;;;45.25;23.90;;;6.70;99.90;;;;;;5041875;28;20507;-37
2022/12/01 05:38:17;;;;;;;40.35;22.52;;;6.70;99.90;;;;;;5040839;28;20045;-40
2022/12/01 05:40:47;;;;;;;44.65;23.15;;;6.70;99.90;;;;;;5042185;28;20099;-40
2022/12/01 05:43:13;;;;;;;39.97;23.20;;;6.70;99.90;;;;;;5042734;28;20029;-40
2022/12/01 05:45:39;;;;;;;41.20;22.80;;;6.80;99.90;;;;;;5041087;28;20031;-39
2022/12/01 05:48:04;;;;;;;39.72;23.25;;;6.80;99.90;;;;;;5042014;28;20922;-39
2022/12/01 05:50:30;;;;;;;40.92;23.73;;;6.80;99.90;;;;;;5042116;28;20488;-41
2022/12/01 05:52:56;;;;;;;42.88;23.95;;;6.80;99.90;;;;;;5040869;28;20062;-40
2022/12/01 05:55:22;;;;;;;43.15;23.00;;;6.80;99.90;;;;;;5042289;28;20032;-41
2022/12/01 05:57:47;;;;;;;42.05;22.70;;;6.80;99.90;;;;;;5041874;28;20059;-40
2022/12/01 06:00:14;;;;;;;40.53;22.90;;;6.80;99.90;;;;;;5041302;28;20796;-40
2022/12/01 06:02:40;;;;;;;38.55;23.55;;;6.70;99.90;;;;;;5041418;28;20025;-40
2022/12/01 06:05:07;;;;;;;42.13;22.73;;;6.70;99.90;;;;;;5042615;28;20025;-39
2022/12/01 06:07:34;;;;;;;46.03;24.70;;;6.70;99.90;;;;;;5041795;28;20111;-41
2022/12/01 06:10:00;;;;;;;44.38;23.88;;;6.60;99.90;;;;;;5042459;28;20040;-40
2022/12/01 06:12:26;;;;;;;45.40;23.08;;;6.60;99.90;;;;;;5041785;28;20024;-40
2022/12/01 06:14:51;;;;;;;43.47;23.30;;;6.50;99.90;;;;;;5042149;28;20032;-40
2022/12/01 06:17:17;;;;;;;41.83;24.60;;;6.50;99.90;;;;;;5041526;28;20029;-40
2022/12/01 06:19:43;;;;;;;42.72;25.63;;;6.50;99.90;;;;;;5041418;28;20025;-40
2022/12/01 06:22:09;;;;;;;41.50;23.02;;;6.50;99.90;;;;;;5041004;28;20021;-41
2022/12/01 06:24:35;;;;;;;43.40;24.23;;;6.50;99.90;;;;;;5041957;28;20025;-40
2022/12/01 06:27:00;;;;;;;43.25;24.10;;;6.40;99.90;;;;;;5040595;28;20028;-40
2022/12/01 06:29:26;;;;;;;46.25;24.48;;;6.40;99.90;;;;;;5041645;28;20037;-39
2022/12/01 06:31:51;;;;;;;45.30;24.92;;;6.40;99.90;;;;;;5041637;28;20090;-40
2022/12/01 06:34:17;;;;;;;41.58;23.75;;;6.50;99.90;;;;;;5040623;28;20029;-38
2022/12/01 06:36:42;;;;;;;40.15;22.65;;;6.50;99.90;;;;;;5041645;28;20032;-41
2022/12/01 06:39:08;;;;;;;41.08;22.40;;;6.50;99.90;;;;;;5041316;28;20032;-41
2022/12/01 06:41:37;;;;;;;41.42;23.10;;;6.50;99.90;;;;;;5040152;28;20465;-39
2022/12/01 06:44:03;;;;;;;42.67;22.73;;;6.50;99.90;;;;;;5039765;28;20029;-40
2022/12/01 06:46:29;;;;;;;46.55;24.83;;;6.50;99.90;;;;;;5040570;28;20048;-39
2022/12/01 06:48:55;;;;;;;42.15;22.85;;;6.50;99.90;;;;;;5039544;28;20104;-40
2022/12/01 06:51:20;;;;;;;45.40;24.05;;;6.50;99.90;;;;;;5048069;28;20198;-40
2022/12/01 06:53:46;;;;;;;47.70;25.67;;;6.50;99.90;;;;;;5040766;28;20033;-41
2022/12/01 06:56:11;;;;;;;47.15;24.98;;;6.50;99.90;;;;;;5040325;28;20033;-38
2022/12/01 06:58:37;;;;;;;44.58;25.05;;;6.50;99.90;;;;;;5040120;28;20025;-40
2022/12/01 07:01:10;;;;;;;43.20;23.95;;;6.50;99.90;;;;;;5040549;28;20048;-38
2022/12/01 07:03:36;;;;;;;45.28;24.13;;;6.50;99.90;;;;;;5039930;28;20082;-40
2022/12/01 07:06:02;;;;;;;41.45;22.75;;;6.50;99.90;;;;;;5040132;28;20537;-40
2022/12/01 07:08:29;;;;;;;48.88;25.10;;;6.50;99.90;;;;;;5040618;28;20033;-42
2022/12/01 07:11:11;;;;;;;46.90;25.58;;;6.50;99.90;;;;;;5039528;28;20751;-41
2022/12/01 07:13:38;;;;;;;45.58;24.67;;;6.50;99.90;;;;;;5039585;28;20099;-41
2022/12/01 07:16:04;;;;;;;46.45;24.63;;;6.50;99.90;;;;;;5039727;28;20029;-41
2022/12/01 07:18:31;;;;;;;46.63;24.42;;;6.50;99.90;;;;;;5040638;28;20017;-41
2022/12/01 07:21:01;;;;;;;50.85;25.70;;;6.50;99.90;;;;;;5039881;28;20044;-41
2022/12/01 07:23:27;;;;;;;48.92;24.27;;;6.60;99.90;;;;;;5039533;28;20021;-40
2022/12/01 07:26:12;;;;;;;47.00;25.38;;;6.50;99.90;;;;;;5040365;28;20036;-41
2022/12/01 07:28:37;;;;;;;43.50;23.48;;;6.60;99.90;;;;;;5039730;28;20052;-41
2022/12/01 07:31:06;;;;;;;45.25;23.92;;;6.60;99.90;;;;;;5037570;28;21506;-41
2022/12/01 07:33:32;;;;;;;46.58;24.08;;;6.60;99.90;;;;;;5039998;28;20063;-41
2022/12/01 07:35:58;;;;;;;44.67;24.38;;;6.70;99.90;;;;;;5039321;28;20361;-41
2022/12/01 07:38:25;;;;;;;47.33;22.92;;;6.70;99.90;;;;;;5039217;28;20037;-40
2022/12/01 07:40:51;;;;;;;50.53;24.95;;;6.70;99.90;;;;;;5039611;28;20078;-41
2022/12/01 07:43:17;;;;;;;51.53;25.90;;;6.70;99.90;;;;;;5040159;28;20040;-40
2022/12/01 07:45:42;;;;;;;52.90;26.67;;;6.70;99.90;;;;;;5038981;28;20203;-40
2022/12/01 07:48:08;;;;;;;51.47;26.65;;;6.70;99.90;;;;;;5040583;28;20170;-39
2022/12/01 07:50:33;;;;;;;49.55;26.05;;;6.70;99.90;;;;;;5038848;28;20048;-39
2022/12/01 07:52:59;;;;;;;42.42;22.90;;;6.70;99.90;;;;;;5039799;28;20032;-38
2022/12/01 07:55:24;;;;;;;47.75;25.02;;;6.70;99.90;;;;;;5040735;28;20431;-40
2022/12/01 07:57:50;;;;;;;44.25;22.92;;;6.80;99.90;;;;;;5040393;28;20097;-40
2022/12/01 08:00:15;;;;;;;47.22;23.98;;;6.80;99.90;;;;;;5041757;28;20036;-40
2022/12/01 08:02:41;;;;;;;48.65;23.85;;;6.80;99.90;;;;;;5039833;28;20048;-41
2022/12/01 08:05:07;;;;;;;53.20;25.38;;;6.80;99.90;;;;;;5039226;28;20025;-41
2022/12/01 08:07:32;;;;;;;43.28;23.95;;;6.80;99.90;;;;;;5040030;28;20314;-41
2022/12/01 08:09:58;;;;;;;48.00;24.73;;;6.80;99.90;;;;;;5039274;28;20033;-41
2022/12/01 08:12:24;;;;;;;57.20;26.95;;;6.80;99.90;;;;;;5039601;28;20040;-39
2022/12/01 08:14:49;;;;;;;50.85;25.67;;;6.80;99.90;;;;;;5040146;28;20806;-40
2022/12/01 08:17:15;;;;;;;47.20;24.42;;;6.80;99.90;;;;;;5042045;28;20033;-41
2022/12/01 08:19:40;;;;;;;48.75;25.30;;;6.80;99.90;;;;;;5042853;28;20032;-40
2022/12/01 08:22:06;;;;;;;47.83;24.95;;;6.90;99.90;;;;;;5043354;28;20024;-40
2022/12/01 08:24:31;;;;;;;49.25;25.38;;;6.90;99.90;;;;;;5043451;28;20053;-41
2022/12/01 08:27:00;;;;;;;55.30;25.63;;;6.90;99.90;;;;;;5042786;28;20021;-41
2022/12/01 08:29:28;;;;;;;47.90;24.25;;;6.90;99.90;;;;;;5043981;28;20413;-38
2022/12/01 08:31:57;;;;;;;47.08;23.80;;;7.00;99.90;;;;;;5042591;28;20051;-40
2022/12/01 08:34:22;;;;;;;50.60;25.70;;;7.00;99.90;;;;;;5042934;28;20029;-40
2022/12/01 08:36:48;;;;;;;50.95;27.20;;;7.00;99.90;;;;;;5043578;28;20565;-41
2022/12/01 08:39:13;;;;;;;57.65;28.80;;;7.00;99.90;;;;;;5043329;28;20411;-41
2022/12/01 08:41:39;;;;;;;59.70;29.23;;;7.00;99.90;;;;;;5042094;28;20108;-39
2022/12/01 08:44:04;;;;;;;62.40;29.45;;;7.00;99.90;;;;;;5043263;28;20044;-40
2022/12/01 08:46:32;;;;;;;58.83;30.05;;;7.00;99.90;;;;;;5043001;28;20040;-41
2022/12/01 08:48:58;;;;;;;63.78;30.75;;;7.00;99.90;;;;;;5042462;28;20025;-39
2022/12/01 08:51:24;;;;;;;56.08;26.88;;;7.00;99.90;;;;;;5043361;28;20063;-40
2022/12/01 08:53:50;;;;;;;59.05;29.23;;;7.10;99.90;;;;;;5042993;28;20797;-41
2022/12/01 08:56:25;;;;;;;58.92;29.45;;;7.10;99.90;;;;;;5042027;28;20032;-39
2022/12/01 08:58:52;;;;;;;58.45;28.58;;;7.10;99.90;;;;;;5043288;28;20025;-41
2022/12/01 09:01:19;;;;;;;60.78;30.52;;;7.10;99.90;;;;;;5042300;28;20021;-40
2022/12/01 09:03:44;;;;;;;62.60;30.23;;;7.10;99.90;;;;;;5043084;28;20025;-40
2022/12/01 09:06:16;;;;;;;59.30;29.90;;;7.10;99.90;;;;;;5043104;28;20098;-41
2022/12/01 09:08:42;;;;;;;64.88;30.40;;;7.10;99.90;;;;;;5042590;28;20029;-40
2022/12/01 09:11:13;;;;;;;67.05;31.98;;;7.10;99.90;;;;;;5042407;28;20033;-40
2022/12/01 09:13:40;;;;;;;63.28;30.88;;;7.10;99.90;;;;;;5042674;28;20028;-41
2022/12/01 09:16:09;;;;;;;61.67;32.15;;;7.10;99.90;;;;;;5042720;28;20067;-40
2022/12/01 09:18:35;;;;;;;59.03;29.17;;;7.20;99.90;;;;;;5043143;28;20033;-41
2022/12/01 09:21:12;;;;;;;58.97;30.05;;;7.20;99.90;;;;;;5043670;28;20040;-41
2022/12/01 09:23:38;;;;;;;56.35;29.13;;;7.20;99.90;;;;;;5041633;28;20468;-41
2022/12/01 09:26:04;;;;;;;61.15;28.60;;;7.20;99.90;;;;;;5043070;28;20032;-40
2022/12/01 09:28:30;;;;;;;63.65;29.73;;;7.20;99.90;;;;;;5041885;28;20618;-40
2022/12/01 09:30:55;;;;;;;64.68;31.55;;;7.30;99.90;;;;;;5041539;28;20061;-39
2022/12/01 09:33:21;;;;;;;62.80;31.95;;;7.30;99.90;;;;;;5042252;28;20074;-42
2022/12/01 09:35:46;;;;;;;62.63;30.88;;;7.30;99.90;;;;;;5041771;28;20048;-40
2022/12/01 09:38:12;;;;;;;58.13;29.15;;;7.30;99.90;;;;;;5041047;28;20071;-37
2022/12/01 09:40:41;;;;;;;63.20;32.75;;;7.30;99.90;;;;;;5042625;28;20504;-40
2022/12/01 09:43:20;;;;;;;67.55;33.53;;;7.30;99.90;;;;;;5040810;28;20036;-40
2022/12/01 09:45:49;;;;;;;62.35;31.38;;;7.30;99.90;;;;;;5042399;28;20145;-41
2022/12/01 09:48:30;;;;;;;67.68;31.85;;;7.30;99.90;;;;;;5041658;28;20148;-39
2022/12/01 09:50:56;;;;;;;69.75;33.28;;;7.30;99.90;;;;;;5040186;28;20041;-41
2022/12/01 09:53:25;;;;;;;65.38;32.33;;;7.30;99.90;;;;;;5041688;28;20024;-41
2022/12/01 09:55:51;;;;;;;56.42;28.73;;;7.30;99.90;;;;;;5042730;28;20025;-40
2022/12/01 09:58:20;;;;;;;58.28;29.17;;;7.30;99.90;;;;;;5041571;28;20029;-41
2022/12/01 10:00:48;;;;;;;58.05;30.88;;;7.40;99.90;;;;;;5037948;28;20041;-41
2022/12/01 10:03:45;;;;;;;57.92;29.52;;;7.40;99.90;;;;;;5041623;28;20024;-40
2022/12/01 10:06:15;;;;;;;62.92;30.40;;;7.40;99.90;;;;;;5032551;28;20129;-41
2022/12/01 10:08:46;;;;;;;54.50;28.50;;;7.40;99.90;;;;;;5041954;28;20134;-41
2022/12/01 10:11:32;;;;;;;55.60;28.83;;;7.50;99.90;;;;;;5041666;28;20110;-41
2022/12/01 10:13:59;;;;;;;54.35;28.05;;;7.50;99.90;;;;;;5041601;28;20521;-37
2022/12/01 10:16:37;;;;;;;56.83;28.33;;;7.60;99.90;;;;;;5042003;28;20377;-40
2022/12/01 10:19:34;;;;;;;51.88;27.45;;;7.60;99.90;;;;;;5040447;28;20643;-39
2022/12/01 10:22:26;;;;;;;53.80;27.52;;;7.60;99.90;;;;;;5041069;28;20063;-43
2022/12/01 10:25:32;;;;;;;53.75;28.98;;;7.70;99.90;;;;;;5041301;28;20090;-38
2022/12/01 10:28:25;;;;;;;51.83;27.85;;;7.70;99.90;;;;;;5030289;28;20033;-37
2022/12/01 10:30:54;;;;;;;54.20;29.40;;;7.70;99.90;;;;;;5039130;28;20048;-39
2022/12/01 10:33:24;;;;;;;56.13;29.70;;;7.80;99.90;;;;;;5041085;28;20072;-38
2022/12/01 10:35:50;;;;;;;52.08;29.70;;;7.70;99.90;;;;;;5041705;28;20029;-40
2022/12/01 10:38:25;;;;;;;58.90;31.92;;;7.80;99.90;;;;;;5041099;28;20071;-39
2022/12/01 10:40:52;;;;;;;57.63;31.27;;;7.70;99.90;;;;;;5039544;28;20033;-37
2022/12/01 10:43:26;;;;;;;59.67;33.65;;;7.80;99.90;;;;;;5040331;28;20040;-37
2022/12/01 10:45:53;;;;;;;57.08;30.95;;;7.70;99.90;;;;;;5041158;28;20033;-40
2022/12/01 10:48:20;;;;;;;64.32;32.53;;;7.70;99.90;;;;;;5040446;28;20029;-40
2022/12/01 10:50:52;;;;;;;63.83;33.85;;;7.80;99.90;;;;;;5041076;28;20039;-40
2022/12/01 10:53:35;;;;;;;60.80;32.25;;;7.70;99.90;;;;;;5040788;28;20140;-37
2022/12/01 10:56:03;;;;;;;;;;;7.70;99.90;;;;;;5040971;28;20025;-39
2022/12/01 10:58:51;;;;;;;56.15;30.92;;;7.70;99.90;;;;;;5041545;28;19911;-38
2022/12/01 11:01:24;;;;;;;55.22;30.58;;;7.70;99.90;;;;;;5039698;28;20110;-38
2022/12/01 11:03:54;;;;;;;;;;;7.80;99.90;;;;;;5041377;28;20032;-40
2022/12/01 11:06:23;;;;;;;56.95;31.25;;;7.80;99.90;;;;;;5040614;28;19924;-40
2022/12/01 11:09:17;;;;;;;54.42;30.27;;;7.80;99.90;;;;;;5040506;28;20063;-38
2022/12/01 11:11:43;;;;;;;55.83;31.83;;;7.80;99.90;;;;;;5035202;28;20068;-39
2022/12/01 11:14:21;;;;;;;57.70;32.30;;;7.80;99.90;;;;;;5040531;28;20053;-39
2022/12/01 11:16:49;;;;;;;49.42;28.75;;;7.80;99.90;;;;;;5040210;28;20035;-37
2022/12/01 11:19:28;;;;;;;45.88;26.23;;;7.80;99.90;;;;;;5040643;28;20036;-39
2022/12/01 11:22:00;;;;;;;42.72;25.00;;;7.80;99.90;;;;;;5039880;28;20412;-39
2022/12/01 11:24:42;;;;;;;42.80;24.30;;;7.90;99.90;;;;;;5041200;28;20742;-39
2022/12/01 11:27:18;;;;;;;41.78;24.95;;;7.90;99.90;;;;;;5040528;28;20747;-37
2022/12/01 11:29:47;;;;;;;42.03;24.40;;;8.00;99.90;;;;;;5040295;28;20072;-41
2022/12/01 11:32:37;;;;;;;40.30;23.35;;;8.00;99.90;;;;;;5040393;28;20025;-40
2022/12/01 11:35:15;;;;;;;41.75;24.23;;;8.00;99.90;;;;;;5040827;28;20064;-39
2022/12/01 11:37:48;;;;;;;39.65;21.83;;;8.00;99.90;;;;;;5039881;28;20053;-37
2022/12/01 11:40:24;;;;;;;;;;;8.00;99.90;;;;;;5041611;28;20058;-39
2022/12/01 11:42:53;;;;;;;39.72;23.05;;;8.00;99.90;;;;;;5041424;28;19909;-40
2022/12/01 11:45:33;;;;;;;34.85;20.70;;;8.00;99.90;;;;;;5041111;28;20029;-37
2022/12/01 11:48:27;;;;;;;34.80;19.58;;;8.00;99.90;;;;;;5040536;28;20120;-39
2022/12/01 11:51:07;;;;;;;38.05;21.73;;;8.00;99.90;;;;;;5020606;28;20062;-40
2022/12/01 11:53:39;;;;;;;35.95;22.23;;;8.00;99.90;;;;;;5042314;28;20680;-38
2022/12/01 11:56:27;;;;;;;36.83;21.88;;;8.00;99.90;;;;;;5044793;28;20055;-39
2022/12/01 11:59:25;;;;;;;35.97;20.58;;;7.90;99.90;;;;;;5043585;28;20609;-40
2022/12/01 12:02:19;;;;;;;36.08;20.70;;;7.90;99.90;;;;;;5038835;28;20075;-39
2022/12/01 12:05:06;;;;;;;37.40;21.58;;;7.90;99.90;;;;;;5042777;28;20033;-37
2022/12/01 12:08:13;;;;;;;38.15;21.52;;;7.90;99.90;;;;;;5044196;28;20388;-39
2022/12/01 12:11:00;;;;;;;35.95;20.35;;;7.80;99.90;;;;;;5038372;28;20040;-40
2022/12/01 12:13:44;;;;;;;33.85;20.17;;;7.80;99.90;;;;;;5043815;28;20029;-41
2022/12/01 12:16:35;;;;;;;32.60;19.13;;;7.80;99.90;;;;;;5043460;28;20032;-40
2022/12/01 12:19:10;;;;;;;33.33;19.92;;;7.80;99.90;;;;;;5043560;28;20032;-38
2022/12/01 12:22:11;;;;;;;36.50;22.33;;;7.80;99.90;;;;;;5043781;28;20118;-39
2022/12/01 12:24:58;;;;;;;33.97;19.27;;;7.90;99.90;;;;;;5038712;28;20078;-40
2022/12/01 12:27:32;;;;;;;29.55;18.40;;;8.00;99.90;;;;;;5043477;28;20123;-38
2022/12/01 12:30:25;;;;;;;35.78;20.75;;;8.00;99.90;;;;;;5043475;28;20033;-39
2022/12/01 12:32:51;;;;;;;34.15;21.95;;;8.20;99.90;;;;;;5042602;28;20060;-41
2022/12/01 12:35:24;;;;;;;34.88;20.30;;;8.20;99.90;;;;;;5042059;28;20166;-40
2022/12/01 12:38:07;;;;;;;32.70;20.20;;;8.30;99.90;;;;;;5043811;28;20198;-37
2022/12/01 12:40:33;;;;;;;;;;;8.30;99.90;;;;;;5042657;28;20078;-40
2022/12/01 12:43:20;;;;;;;30.55;17.52;;;8.40;99.90;;;;;;5042983;28;19908;-38
2022/12/01 12:46:07;;;;;;;31.92;19.45;;;8.40;99.90;;;;;;5043095;28;20021;-39
2022/12/01 12:49:07;;;;;;;32.78;19.42;;;8.50;99.90;;;;;;5043359;28;20033;-40
2022/12/01 12:51:35;;;;;;;37.05;20.77;;;8.50;99.90;;;;;;5032996;28;20037;-40
2022/12/01 12:54:38;;;;;;;35.00;21.65;;;8.60;99.90;;;;;;5042320;28;20083;-40
2022/12/01 12:57:17;;;;;;;36.10;20.88;;;8.60;99.90;;;;;;5035350;28;20029;-41
2022/12/01 13:00:14;;;;;;;33.45;20.58;;;8.60;99.90;;;;;;5043327;28;20651;-39